sensor_id;sensor_type;location;lat;lon;timestamp;P1;durP1;ratioP1;P2;durP2;ratioP2
5149;SDS011;2593;52.466;13.436;2022-12-18T00:01:47;44.23;;;14.70;;
5149;SDS011;2593;52.466;13.436;2022-12-18T00:04:20;63.30;;;16.40;;
5149;SDS011;2593;52.466;13.436;2022-12-18T00:06:47;41.33;;;15.50;;
5149;SDS011;2593;52.466;13.436;2022-12-18T00:09:13;60.67;;;16.73;;
5149;SDS011;2593;52.466;13.436;2022-12-18T00:11:38;58.77;;;18.27;;
5149;SDS011;2593;52.466;13.436;2022-12-18T00:14:04;40.07;;;17.00;;
5149;SDS011;2593;52.466;13.436;2022-12-18T00:16:30;41.33;;;14.93;;
5149;SDS011;2593;52.466;13.436;2022-12-18T00:18:58;41.00;;;14.67;;
5149;SDS011;2593;52.466;13.436;2022-12-18T00:21:24;42.00;;;14.90;;
5149;SDS011;2593;52.466;13.436;2022-12-18T00:23:51;37.70;;;14.87;;
5149;SDS011;2593;52.466;13.436;2022-12-18T00:26:19;48.30;;;15.97;;
5149;SDS011;2593;52.466;13.436;2022-12-18T00:28:47;37.27;;;13.80;;
5149;SDS011;2593;52.466;13.436;2022-12-18T00:31:14;38.80;;;14.47;;
5149;SDS011;2593;52.466;13.436;2022-12-18T00:33:42;43.30;;;15.63;;
5149;SDS011;2593;52.466;13.436;2022-12-18T00:36:12;39.63;;;16.23;;
5149;SDS011;2593;52.466;13.436;2022-12-18T00:38:40;68.13;;;22.17;;
5149;SDS011;2593;52.466;13.436;2022-12-18T00:41:07;49.47;;;19.30;;
5149;SDS011;2593;52.466;13.436;2022-12-18T00:43:33;50.90;;;17.70;;
5149;SDS011;2593;52.466;13.436;2022-12-18T00:45:59;51.57;;;17.60;;
5149;SDS011;2593;52.466;13.436;2022-12-18T00:48:25;49.57;;;16.30;;
5149;SDS011;2593;52.466;13.436;2022-12-18T00:50:51;48.90;;;14.70;;
5149;SDS011;2593;52.466;13.436;2022-12-18T00:53:17;43.43;;;16.63;;
5149;SDS011;2593;52.466;13.436;2022-12-18T00:55:43;40.90;;;14.47;;
5149;SDS011;2593;52.466;13.436;2022-12-18T00:58:09;41.40;;;16.20;;
5149;SDS011;2593;52.466;13.436;2022-12-18T01:00:35;38.40;;;15.60;;
5149;SDS011;2593;52.466;13.436;2022-12-18T01:03:01;47.57;;;15.93;;
5149;SDS011;2593;52.466;13.436;2022-12-18T01:05:28;37.47;;;15.03;;
5149;SDS011;2593;52.466;13.436;2022-12-18T01:07:54;48.93;;;15.70;;
5149;SDS011;2593;52.466;13.436;2022-12-18T01:10:20;49.67;;;15.80;;
5149;SDS011;2593;52.466;13.436;2022-12-18T01:12:46;125.67;;;42.23;;
5149;SDS011;2593;52.466;13.436;2022-12-18T01:15:13;46.10;;;15.93;;
5149;SDS011;2593;52.466;13.436;2022-12-18T01:17:40;44.90;;;15.20;;
5149;SDS011;2593;52.466;13.436;2022-12-18T01:20:06;42.60;;;14.97;;
5149;SDS011;2593;52.466;13.436;2022-12-18T01:22:33;45.37;;;16.03;;
5149;SDS011;2593;52.466;13.436;2022-12-18T01:24:59;59.60;;;18.73;;
5149;SDS011;2593;52.466;13.436;2022-12-18T01:27:25;54.80;;;16.93;;
5149;SDS011;2593;52.466;13.436;2022-12-18T01:29:51;44.93;;;16.20;;
5149;SDS011;2593;52.466;13.436;2022-12-18T01:32:17;53.00;;;19.40;;
5149;SDS011;2593;52.466;13.436;2022-12-18T01:34:42;78.70;;;27.27;;
5149;SDS011;2593;52.466;13.436;2022-12-18T01:37:08;91.70;;;27.70;;
5149;SDS011;2593;52.466;13.436;2022-12-18T01:39:34;67.67;;;21.70;;
5149;SDS011;2593;52.466;13.436;2022-12-18T01:42:00;74.47;;;21.30;;
5149;SDS011;2593;52.466;13.436;2022-12-18T01:50:22;82.27;;;23.83;;
5149;SDS011;2593;52.466;13.436;2022-12-18T01:52:59;80.10;;;22.93;;
5149;SDS011;2593;52.466;13.436;2022-12-18T01:55:35;74.60;;;21.80;;
5149;SDS011;2593;52.466;13.436;2022-12-18T01:58:03;81.63;;;22.47;;
5149;SDS011;2593;52.466;13.436;2022-12-18T02:00:29;70.87;;;23.17;;
5149;SDS011;2593;52.466;13.436;2022-12-18T02:02:55;74.20;;;21.30;;
5149;SDS011;2593;52.466;13.436;2022-12-18T02:08:10;85.40;;;23.83;;
5149;SDS011;2593;52.466;13.436;2022-12-18T02:11:03;77.30;;;22.20;;
5149;SDS011;2593;52.466;13.436;2022-12-18T02:13:52;63.80;;;22.20;;
5149;SDS011;2593;52.466;13.436;2022-12-18T02:19:27;100.73;;;25.00;;
5149;SDS011;2593;52.466;13.436;2022-12-18T02:22:03;70.60;;;22.70;;
5149;SDS011;2593;52.466;13.436;2022-12-18T02:25:35;78.27;;;23.57;;
5149;SDS011;2593;52.466;13.436;2022-12-18T02:27:49;78.50;;;24.50;;
5149;SDS011;2593;52.466;13.436;2022-12-18T02:30:17;88.10;;;24.63;;
5149;SDS011;2593;52.466;13.436;2022-12-18T02:32:45;78.33;;;25.33;;
5149;SDS011;2593;52.466;13.436;2022-12-18T02:35:16;123.27;;;38.33;;
5149;SDS011;2593;52.466;13.436;2022-12-18T02:37:45;101.33;;;31.80;;
5149;SDS011;2593;52.466;13.436;2022-12-18T02:40:12;84.03;;;24.80;;
5149;SDS011;2593;52.466;13.436;2022-12-18T02:42:40;93.07;;;25.20;;
5149;SDS011;2593;52.466;13.436;2022-12-18T02:45:06;81.40;;;26.57;;
5149;SDS011;2593;52.466;13.436;2022-12-18T02:47:32;90.70;;;25.30;;
5149;SDS011;2593;52.466;13.436;2022-12-18T03:01:43;92.70;;;25.37;;
5149;SDS011;2593;52.466;13.436;2022-12-18T03:03:53;70.43;;;22.33;;
5149;SDS011;2593;52.466;13.436;2022-12-18T03:06:32;70.13;;;27.00;;
5149;SDS011;2593;52.466;13.436;2022-12-18T03:09:09;66.23;;;21.13;;
5149;SDS011;2593;52.466;13.436;2022-12-18T03:11:40;66.03;;;21.17;;
5149;SDS011;2593;52.466;13.436;2022-12-18T03:14:30;73.23;;;21.97;;
5149;SDS011;2593;52.466;13.436;2022-12-18T03:16:59;67.80;;;21.27;;
5149;SDS011;2593;52.466;13.436;2022-12-18T03:19:28;66.40;;;21.00;;
5149;SDS011;2593;52.466;13.436;2022-12-18T03:21:57;68.10;;;18.90;;
5149;SDS011;2593;52.466;13.436;2022-12-18T03:24:26;75.33;;;22.20;;
5149;SDS011;2593;52.466;13.436;2022-12-18T03:26:56;71.20;;;21.67;;
5149;SDS011;2593;52.466;13.436;2022-12-18T03:29:32;59.20;;;21.10;;
5149;SDS011;2593;52.466;13.436;2022-12-18T03:32:05;62.30;;;20.30;;
5149;SDS011;2593;52.466;13.436;2022-12-18T03:34:37;56.80;;;21.00;;
5149;SDS011;2593;52.466;13.436;2022-12-18T03:37:05;68.63;;;20.77;;
5149;SDS011;2593;52.466;13.436;2022-12-18T03:39:32;63.33;;;19.83;;
5149;SDS011;2593;52.466;13.436;2022-12-18T03:42:01;106.03;;;39.00;;
5149;SDS011;2593;52.466;13.436;2022-12-18T03:44:56;63.93;;;21.53;;
5149;SDS011;2593;52.466;13.436;2022-12-18T03:47:40;68.97;;;20.90;;
5149;SDS011;2593;52.466;13.436;2022-12-18T03:50:20;58.17;;;20.43;;
5149;SDS011;2593;52.466;13.436;2022-12-18T03:53:00;49.67;;;18.80;;
5149;SDS011;2593;52.466;13.436;2022-12-18T03:55:51;42.63;;;18.07;;
5149;SDS011;2593;52.466;13.436;2022-12-18T03:58:19;51.53;;;17.83;;
5149;SDS011;2593;52.466;13.436;2022-12-18T04:00:47;46.33;;;16.47;;
5149;SDS011;2593;52.466;13.436;2022-12-18T04:03:15;43.27;;;16.17;;
5149;SDS011;2593;52.466;13.436;2022-12-18T04:05:43;47.50;;;16.10;;
5149;SDS011;2593;52.466;13.436;2022-12-18T04:08:10;39.77;;;15.33;;
5149;SDS011;2593;52.466;13.436;2022-12-18T04:10:36;41.30;;;14.13;;
5149;SDS011;2593;52.466;13.436;2022-12-18T04:13:02;42.83;;;15.43;;
5149;SDS011;2593;52.466;13.436;2022-12-18T04:15:27;41.53;;;13.07;;
5149;SDS011;2593;52.466;13.436;2022-12-18T04:17:53;48.43;;;15.53;;
5149;SDS011;2593;52.466;13.436;2022-12-18T04:20:19;41.23;;;14.30;;
5149;SDS011;2593;52.466;13.436;2022-12-18T04:22:44;39.50;;;14.43;;
5149;SDS011;2593;52.466;13.436;2022-12-18T04:25:10;53.17;;;19.63;;
5149;SDS011;2593;52.466;13.436;2022-12-18T04:27:36;46.70;;;16.87;;
5149;SDS011;2593;52.466;13.436;2022-12-18T04:30:02;42.43;;;16.30;;
5149;SDS011;2593;52.466;13.436;2022-12-18T04:32:28;47.40;;;15.73;;
5149;SDS011;2593;52.466;13.436;2022-12-18T04:34:53;48.80;;;17.13;;
5149;SDS011;2593;52.466;13.436;2022-12-18T04:37:19;50.00;;;15.37;;
5149;SDS011;2593;52.466;13.436;2022-12-18T04:39:44;46.60;;;15.70;;
5149;SDS011;2593;52.466;13.436;2022-12-18T04:42:10;52.57;;;16.57;;
5149;SDS011;2593;52.466;13.436;2022-12-18T04:44:36;46.03;;;16.97;;
5149;SDS011;2593;52.466;13.436;2022-12-18T04:47:02;52.10;;;16.87;;
5149;SDS011;2593;52.466;13.436;2022-12-18T04:49:27;58.23;;;15.43;;
5149;SDS011;2593;52.466;13.436;2022-12-18T04:51:53;44.50;;;13.90;;
5149;SDS011;2593;52.466;13.436;2022-12-18T04:54:19;46.73;;;15.27;;
5149;SDS011;2593;52.466;13.436;2022-12-18T04:56:44;42.63;;;14.43;;
5149;SDS011;2593;52.466;13.436;2022-12-18T04:59:10;36.27;;;14.00;;
5149;SDS011;2593;52.466;13.436;2022-12-18T05:01:36;36.57;;;13.90;;
5149;SDS011;2593;52.466;13.436;2022-12-18T05:04:02;56.37;;;17.60;;
5149;SDS011;2593;52.466;13.436;2022-12-18T05:06:28;55.83;;;17.43;;
5149;SDS011;2593;52.466;13.436;2022-12-18T05:08:54;54.10;;;17.60;;
5149;SDS011;2593;52.466;13.436;2022-12-18T05:11:20;52.27;;;17.90;;
5149;SDS011;2593;52.466;13.436;2022-12-18T05:13:45;46.33;;;16.13;;
5149;SDS011;2593;52.466;13.436;2022-12-18T05:16:11;49.67;;;16.00;;
5149;SDS011;2593;52.466;13.436;2022-12-18T05:18:38;47.87;;;16.80;;
5149;SDS011;2593;52.466;13.436;2022-12-18T05:21:04;57.20;;;22.17;;
5149;SDS011;2593;52.466;13.436;2022-12-18T05:23:30;61.20;;;21.27;;
5149;SDS011;2593;52.466;13.436;2022-12-18T05:25:57;52.17;;;17.27;;
5149;SDS011;2593;52.466;13.436;2022-12-18T05:28:27;52.10;;;18.00;;
5149;SDS011;2593;52.466;13.436;2022-12-18T05:30:55;62.17;;;18.47;;
5149;SDS011;2593;52.466;13.436;2022-12-18T05:33:23;57.40;;;18.40;;
5149;SDS011;2593;52.466;13.436;2022-12-18T05:35:51;64.00;;;19.37;;
5149;SDS011;2593;52.466;13.436;2022-12-18T05:38:21;74.87;;;20.07;;
5149;SDS011;2593;52.466;13.436;2022-12-18T05:40:48;55.67;;;16.53;;
5149;SDS011;2593;52.466;13.436;2022-12-18T05:43:15;59.30;;;19.67;;
5149;SDS011;2593;52.466;13.436;2022-12-18T05:45:41;86.63;;;29.17;;
5149;SDS011;2593;52.466;13.436;2022-12-18T05:48:07;77.47;;;28.43;;
5149;SDS011;2593;52.466;13.436;2022-12-18T05:50:37;65.87;;;19.17;;
5149;SDS011;2593;52.466;13.436;2022-12-18T05:53:04;79.77;;;17.40;;
5149;SDS011;2593;52.466;13.436;2022-12-18T05:55:34;62.13;;;19.17;;
5149;SDS011;2593;52.466;13.436;2022-12-18T05:58:00;68.80;;;19.50;;
5149;SDS011;2593;52.466;13.436;2022-12-18T06:00:26;53.03;;;18.57;;
5149;SDS011;2593;52.466;13.436;2022-12-18T06:02:52;49.13;;;17.10;;
5149;SDS011;2593;52.466;13.436;2022-12-18T06:05:17;73.43;;;19.93;;
5149;SDS011;2593;52.466;13.436;2022-12-18T06:07:43;66.03;;;18.03;;
5149;SDS011;2593;52.466;13.436;2022-12-18T06:10:09;48.67;;;18.50;;
5149;SDS011;2593;52.466;13.436;2022-12-18T06:12:34;64.90;;;17.70;;
5149;SDS011;2593;52.466;13.436;2022-12-18T06:15:00;52.03;;;17.40;;
5149;SDS011;2593;52.466;13.436;2022-12-18T06:17:29;53.03;;;17.63;;
5149;SDS011;2593;52.466;13.436;2022-12-18T06:19:56;65.53;;;19.47;;
5149;SDS011;2593;52.466;13.436;2022-12-18T06:22:22;86.50;;;28.40;;
5149;SDS011;2593;52.466;13.436;2022-12-18T06:24:48;139.90;;;47.60;;
5149;SDS011;2593;52.466;13.436;2022-12-18T06:27:13;52.37;;;21.20;;
5149;SDS011;2593;52.466;13.436;2022-12-18T06:29:39;64.87;;;19.50;;
5149;SDS011;2593;52.466;13.436;2022-12-18T06:32:05;54.53;;;19.87;;
5149;SDS011;2593;52.466;13.436;2022-12-18T06:34:31;61.47;;;17.63;;
5149;SDS011;2593;52.466;13.436;2022-12-18T06:36:57;60.57;;;17.40;;
5149;SDS011;2593;52.466;13.436;2022-12-18T06:39:23;70.00;;;18.43;;
5149;SDS011;2593;52.466;13.436;2022-12-18T06:41:49;66.00;;;19.40;;
5149;SDS011;2593;52.466;13.436;2022-12-18T06:44:15;44.27;;;15.93;;
5149;SDS011;2593;52.466;13.436;2022-12-18T06:46:41;59.67;;;19.93;;
5149;SDS011;2593;52.466;13.436;2022-12-18T06:49:06;54.70;;;20.57;;
5149;SDS011;2593;52.466;13.436;2022-12-18T06:51:34;45.83;;;17.50;;
5149;SDS011;2593;52.466;13.436;2022-12-18T06:54:00;53.50;;;17.53;;
5149;SDS011;2593;52.466;13.436;2022-12-18T06:56:26;51.13;;;18.40;;
5149;SDS011;2593;52.466;13.436;2022-12-18T06:58:52;57.13;;;17.57;;
5149;SDS011;2593;52.466;13.436;2022-12-18T07:01:17;47.60;;;16.67;;
5149;SDS011;2593;52.466;13.436;2022-12-18T07:03:43;64.07;;;19.07;;
5149;SDS011;2593;52.466;13.436;2022-12-18T07:06:14;56.33;;;18.80;;
5149;SDS011;2593;52.466;13.436;2022-12-18T07:08:41;57.50;;;19.10;;
5149;SDS011;2593;52.466;13.436;2022-12-18T07:11:07;50.97;;;18.80;;
5149;SDS011;2593;52.466;13.436;2022-12-18T07:13:32;66.13;;;20.50;;
5149;SDS011;2593;52.466;13.436;2022-12-18T07:16:05;53.90;;;18.77;;
5149;SDS011;2593;52.466;13.436;2022-12-18T07:18:35;60.40;;;19.30;;
5149;SDS011;2593;52.466;13.436;2022-12-18T07:21:02;55.47;;;17.20;;
5149;SDS011;2593;52.466;13.436;2022-12-18T07:23:30;66.93;;;19.57;;
5149;SDS011;2593;52.466;13.436;2022-12-18T07:26:00;65.40;;;19.23;;
5149;SDS011;2593;52.466;13.436;2022-12-18T07:28:29;54.33;;;17.83;;
5149;SDS011;2593;52.466;13.436;2022-12-18T07:30:55;61.13;;;19.33;;
5149;SDS011;2593;52.466;13.436;2022-12-18T07:33:21;70.70;;;19.10;;
5149;SDS011;2593;52.466;13.436;2022-12-18T07:35:47;58.97;;;18.10;;
5149;SDS011;2593;52.466;13.436;2022-12-18T07:38:12;57.03;;;18.40;;
5149;SDS011;2593;52.466;13.436;2022-12-18T07:40:38;63.70;;;19.47;;
5149;SDS011;2593;52.466;13.436;2022-12-18T07:43:04;63.90;;;18.70;;
5149;SDS011;2593;52.466;13.436;2022-12-18T07:45:30;54.40;;;17.67;;
5149;SDS011;2593;52.466;13.436;2022-12-18T07:47:55;58.97;;;20.33;;
5149;SDS011;2593;52.466;13.436;2022-12-18T07:50:21;68.87;;;19.77;;
5149;SDS011;2593;52.466;13.436;2022-12-18T07:52:46;59.83;;;17.77;;
5149;SDS011;2593;52.466;13.436;2022-12-18T07:55:12;61.63;;;18.63;;
5149;SDS011;2593;52.466;13.436;2022-12-18T07:57:38;51.40;;;16.63;;
5149;SDS011;2593;52.466;13.436;2022-12-18T08:00:04;46.63;;;17.60;;
5149;SDS011;2593;52.466;13.436;2022-12-18T08:02:30;55.27;;;17.67;;
5149;SDS011;2593;52.466;13.436;2022-12-18T08:04:56;65.70;;;18.13;;
5149;SDS011;2593;52.466;13.436;2022-12-18T08:07:23;54.47;;;16.30;;
5149;SDS011;2593;52.466;13.436;2022-12-18T08:09:48;44.23;;;13.93;;
5149;SDS011;2593;52.466;13.436;2022-12-18T08:12:14;54.83;;;17.70;;
5149;SDS011;2593;52.466;13.436;2022-12-18T08:14:39;51.10;;;16.43;;
5149;SDS011;2593;52.466;13.436;2022-12-18T08:17:05;47.10;;;17.03;;
5149;SDS011;2593;52.466;13.436;2022-12-18T08:19:31;42.63;;;17.37;;
5149;SDS011;2593;52.466;13.436;2022-12-18T08:21:56;48.13;;;17.83;;
5149;SDS011;2593;52.466;13.436;2022-12-18T08:24:22;51.13;;;16.07;;
5149;SDS011;2593;52.466;13.436;2022-12-18T08:26:48;53.33;;;15.90;;
5149;SDS011;2593;52.466;13.436;2022-12-18T08:29:13;50.80;;;15.80;;
5149;SDS011;2593;52.466;13.436;2022-12-18T08:31:39;58.20;;;16.53;;
5149;SDS011;2593;52.466;13.436;2022-12-18T08:34:05;61.43;;;18.07;;
5149;SDS011;2593;52.466;13.436;2022-12-18T08:36:30;55.90;;;15.80;;
5149;SDS011;2593;52.466;13.436;2022-12-18T08:38:56;58.20;;;17.93;;
5149;SDS011;2593;52.466;13.436;2022-12-18T08:41:22;43.97;;;15.53;;
5149;SDS011;2593;52.466;13.436;2022-12-18T08:43:48;46.57;;;16.13;;
5149;SDS011;2593;52.466;13.436;2022-12-18T08:46:35;42.60;;;15.90;;
5149;SDS011;2593;52.466;13.436;2022-12-18T08:49:03;60.23;;;16.93;;
5149;SDS011;2593;52.466;13.436;2022-12-18T08:51:30;52.40;;;17.33;;
5149;SDS011;2593;52.466;13.436;2022-12-18T08:53:57;47.83;;;16.67;;
5149;SDS011;2593;52.466;13.436;2022-12-18T08:56:22;51.13;;;18.10;;
5149;SDS011;2593;52.466;13.436;2022-12-18T08:58:50;43.43;;;16.90;;
5149;SDS011;2593;52.466;13.436;2022-12-18T09:01:18;42.50;;;15.73;;
5149;SDS011;2593;52.466;13.436;2022-12-18T09:03:44;43.07;;;14.23;;
5149;SDS011;2593;52.466;13.436;2022-12-18T09:06:13;40.13;;;15.13;;
5149;SDS011;2593;52.466;13.436;2022-12-18T09:08:40;33.27;;;14.53;;
5149;SDS011;2593;52.466;13.436;2022-12-18T09:11:11;44.50;;;16.77;;
5149;SDS011;2593;52.466;13.436;2022-12-18T09:13:38;46.43;;;17.50;;
5149;SDS011;2593;52.466;13.436;2022-12-18T09:16:04;38.67;;;14.67;;
5149;SDS011;2593;52.466;13.436;2022-12-18T09:18:30;42.90;;;16.63;;
5149;SDS011;2593;52.466;13.436;2022-12-18T09:20:56;54.93;;;16.83;;
5149;SDS011;2593;52.466;13.436;2022-12-18T09:23:21;44.47;;;14.17;;
5149;SDS011;2593;52.466;13.436;2022-12-18T09:25:47;60.20;;;22.03;;
5149;SDS011;2593;52.466;13.436;2022-12-18T09:28:14;57.77;;;18.43;;
5149;SDS011;2593;52.466;13.436;2022-12-18T09:30:43;57.47;;;18.00;;
5149;SDS011;2593;52.466;13.436;2022-12-18T09:33:10;59.63;;;17.30;;
5149;SDS011;2593;52.466;13.436;2022-12-18T09:35:36;54.57;;;20.23;;
5149;SDS011;2593;52.466;13.436;2022-12-18T09:38:02;66.60;;;18.43;;
5149;SDS011;2593;52.466;13.436;2022-12-18T09:40:29;60.03;;;20.80;;
5149;SDS011;2593;52.466;13.436;2022-12-18T09:43:03;66.27;;;18.80;;
5149;SDS011;2593;52.466;13.436;2022-12-18T09:45:40;56.67;;;20.37;;
5149;SDS011;2593;52.466;13.436;2022-12-18T09:48:11;53.43;;;19.30;;
5149;SDS011;2593;52.466;13.436;2022-12-18T09:50:44;59.87;;;20.13;;
5149;SDS011;2593;52.466;13.436;2022-12-18T09:53:13;67.37;;;25.00;;
5149;SDS011;2593;52.466;13.436;2022-12-18T09:55:45;48.13;;;18.27;;
5149;SDS011;2593;52.466;13.436;2022-12-18T09:58:17;56.23;;;20.63;;
5149;SDS011;2593;52.466;13.436;2022-12-18T10:00:44;69.37;;;21.43;;
5149;SDS011;2593;52.466;13.436;2022-12-18T10:03:10;55.67;;;17.77;;
5149;SDS011;2593;52.466;13.436;2022-12-18T10:05:48;64.17;;;20.70;;
5149;SDS011;2593;52.466;13.436;2022-12-18T10:08:19;57.17;;;17.33;;
5149;SDS011;2593;52.466;13.436;2022-12-18T10:10:51;49.73;;;18.90;;
5149;SDS011;2593;52.466;13.436;2022-12-18T10:18:55;52.07;;;17.83;;
5149;SDS011;2593;52.466;13.436;2022-12-18T10:21:34;61.57;;;18.30;;
5149;SDS011;2593;52.466;13.436;2022-12-18T10:26:49;57.90;;;16.53;;
5149;SDS011;2593;52.466;13.436;2022-12-18T10:29:17;56.60;;;19.50;;
5149;SDS011;2593;52.466;13.436;2022-12-18T10:31:43;58.00;;;20.40;;
5149;SDS011;2593;52.466;13.436;2022-12-18T10:34:09;66.77;;;20.40;;
5149;SDS011;2593;52.466;13.436;2022-12-18T10:36:36;65.40;;;19.60;;
5149;SDS011;2593;52.466;13.436;2022-12-18T10:41:40;51.60;;;18.93;;
5149;SDS011;2593;52.466;13.436;2022-12-18T10:44:15;64.40;;;20.40;;
5149;SDS011;2593;52.466;13.436;2022-12-18T10:46:50;65.40;;;20.43;;
5149;SDS011;2593;52.466;13.436;2022-12-18T10:49:27;65.27;;;19.60;;
5149;SDS011;2593;52.466;13.436;2022-12-18T10:52:14;66.00;;;20.40;;
5149;SDS011;2593;52.466;13.436;2022-12-18T10:59:54;76.17;;;21.40;;
5149;SDS011;2593;52.466;13.436;2022-12-18T11:02:33;53.27;;;17.87;;
5149;SDS011;2593;52.466;13.436;2022-12-18T11:05:01;55.53;;;18.03;;
5149;SDS011;2593;52.466;13.436;2022-12-18T11:08:11;50.90;;;17.93;;
5149;SDS011;2593;52.466;13.436;2022-12-18T11:10:19;45.20;;;16.33;;
5149;SDS011;2593;52.466;13.436;2022-12-18T11:12:47;46.17;;;16.03;;
5149;SDS011;2593;52.466;13.436;2022-12-18T11:15:15;58.13;;;18.90;;
5149;SDS011;2593;52.466;13.436;2022-12-18T11:17:52;50.50;;;17.20;;
5149;SDS011;2593;52.466;13.436;2022-12-18T11:20:34;47.80;;;18.27;;
5149;SDS011;2593;52.466;13.436;2022-12-18T11:23:01;46.87;;;17.03;;
5149;SDS011;2593;52.466;13.436;2022-12-18T11:25:29;47.30;;;17.93;;
5149;SDS011;2593;52.466;13.436;2022-12-18T11:27:58;53.83;;;17.63;;
5149;SDS011;2593;52.466;13.436;2022-12-18T11:31:08;37.43;;;15.40;;
5149;SDS011;2593;52.466;13.436;2022-12-18T11:33:51;42.20;;;16.30;;
5149;SDS011;2593;52.466;13.436;2022-12-18T11:36:33;50.10;;;15.90;;
5149;SDS011;2593;52.466;13.436;2022-12-18T11:39:07;49.00;;;17.10;;
5149;SDS011;2593;52.466;13.436;2022-12-18T11:41:46;49.90;;;18.20;;
5149;SDS011;2593;52.466;13.436;2022-12-18T11:44:57;60.37;;;17.47;;
5149;SDS011;2593;52.466;13.436;2022-12-18T11:47:41;46.17;;;16.30;;
5149;SDS011;2593;52.466;13.436;2022-12-18T11:50:18;41.23;;;16.07;;
5149;SDS011;2593;52.466;13.436;2022-12-18T11:52:47;47.73;;;17.40;;
5149;SDS011;2593;52.466;13.436;2022-12-18T11:55:18;57.13;;;17.00;;
5149;SDS011;2593;52.466;13.436;2022-12-18T12:00:36;43.70;;;18.90;;
5149;SDS011;2593;52.466;13.436;2022-12-18T12:21:54;51.77;;;19.53;;
5149;SDS011;2593;52.466;13.436;2022-12-18T12:29:51;49.83;;;16.60;;
5149;SDS011;2593;52.466;13.436;2022-12-18T12:32:58;46.20;;;15.70;;
5149;SDS011;2593;52.466;13.436;2022-12-18T12:35:51;40.10;;;15.90;;
5149;SDS011;2593;52.466;13.436;2022-12-18T12:38:42;69.07;;;20.57;;
5149;SDS011;2593;52.466;13.436;2022-12-18T12:41:12;57.57;;;17.70;;
5149;SDS011;2593;52.466;13.436;2022-12-18T12:44:04;47.53;;;17.30;;
5149;SDS011;2593;52.466;13.436;2022-12-18T12:46:35;48.57;;;17.27;;
5149;SDS011;2593;52.466;13.436;2022-12-18T12:49:08;47.13;;;17.77;;
5149;SDS011;2593;52.466;13.436;2022-12-18T12:51:43;51.57;;;15.67;;
5149;SDS011;2593;52.466;13.436;2022-12-18T12:54:22;43.53;;;16.50;;
5149;SDS011;2593;52.466;13.436;2022-12-18T12:57:04;42.97;;;18.40;;
5149;SDS011;2593;52.466;13.436;2022-12-18T13:02:31;43.37;;;16.30;;
5149;SDS011;2593;52.466;13.436;2022-12-18T13:08:02;42.47;;;17.57;;
5149;SDS011;2593;52.466;13.436;2022-12-18T13:10:32;55.40;;;17.33;;
5149;SDS011;2593;52.466;13.436;2022-12-18T13:13:04;46.50;;;16.17;;
5149;SDS011;2593;52.466;13.436;2022-12-18T13:20:42;37.57;;;17.40;;
5149;SDS011;2593;52.466;13.436;2022-12-18T13:25:52;42.43;;;17.80;;
5149;SDS011;2593;52.466;13.436;2022-12-18T13:30:58;56.10;;;18.30;;
5149;SDS011;2593;52.466;13.436;2022-12-18T13:36:00;50.90;;;20.70;;
5149;SDS011;2593;52.466;13.436;2022-12-18T13:38:33;40.63;;;16.50;;
5149;SDS011;2593;52.466;13.436;2022-12-18T13:41:02;46.47;;;17.37;;
5149;SDS011;2593;52.466;13.436;2022-12-18T13:43:48;46.10;;;20.07;;
5149;SDS011;2593;52.466;13.436;2022-12-18T13:46:28;42.23;;;17.90;;
5149;SDS011;2593;52.466;13.436;2022-12-18T13:51:42;45.70;;;18.03;;
5149;SDS011;2593;52.466;13.436;2022-12-18T13:54:33;53.47;;;18.00;;
5149;SDS011;2593;52.466;13.436;2022-12-18T13:57:05;56.30;;;20.50;;
5149;SDS011;2593;52.466;13.436;2022-12-18T13:59:50;44.20;;;18.10;;
5149;SDS011;2593;52.466;13.436;2022-12-18T14:02:17;60.70;;;21.03;;
5149;SDS011;2593;52.466;13.436;2022-12-18T14:04:47;47.07;;;18.70;;
5149;SDS011;2593;52.466;13.436;2022-12-18T14:07:18;56.97;;;21.17;;
5149;SDS011;2593;52.466;13.436;2022-12-18T14:09:49;58.93;;;21.90;;
5149;SDS011;2593;52.466;13.436;2022-12-18T14:15:33;54.60;;;23.07;;
5149;SDS011;2593;52.466;13.436;2022-12-18T14:20:48;47.87;;;20.93;;
5149;SDS011;2593;52.466;13.436;2022-12-18T14:23:34;47.53;;;20.77;;
5149;SDS011;2593;52.466;13.436;2022-12-18T14:26:19;50.37;;;20.83;;
5149;SDS011;2593;52.466;13.436;2022-12-18T14:28:52;52.77;;;21.00;;
5149;SDS011;2593;52.466;13.436;2022-12-18T14:31:19;45.30;;;18.73;;
5149;SDS011;2593;52.466;13.436;2022-12-18T14:33:47;44.93;;;18.97;;
5149;SDS011;2593;52.466;13.436;2022-12-18T14:36:17;39.63;;;19.50;;
5149;SDS011;2593;52.466;13.436;2022-12-18T14:38:48;54.97;;;21.30;;
5149;SDS011;2593;52.466;13.436;2022-12-18T14:41:23;52.43;;;19.40;;
5149;SDS011;2593;52.466;13.436;2022-12-18T14:43:50;57.13;;;20.50;;
5149;SDS011;2593;52.466;13.436;2022-12-18T14:49:03;32.30;;;16.23;;
5149;SDS011;2593;52.466;13.436;2022-12-18T14:51:55;27.40;;;13.57;;
5149;SDS011;2593;52.466;13.436;2022-12-18T14:54:25;43.80;;;15.47;;
5149;SDS011;2593;52.466;13.436;2022-12-18T14:59:26;42.83;;;16.60;;
5149;SDS011;2593;52.466;13.436;2022-12-18T15:04:34;40.83;;;15.90;;
5149;SDS011;2593;52.466;13.436;2022-12-18T15:07:12;42.13;;;18.93;;
5149;SDS011;2593;52.466;13.436;2022-12-18T15:09:42;39.40;;;18.40;;
5149;SDS011;2593;52.466;13.436;2022-12-18T15:12:37;32.73;;;16.80;;
5149;SDS011;2593;52.466;13.436;2022-12-18T15:18:01;47.57;;;16.40;;
5149;SDS011;2593;52.466;13.436;2022-12-18T15:20:40;32.13;;;14.63;;
5149;SDS011;2593;52.466;13.436;2022-12-18T15:25:47;33.83;;;16.20;;
5149;SDS011;2593;52.466;13.436;2022-12-18T15:28:25;40.37;;;15.80;;
5149;SDS011;2593;52.466;13.436;2022-12-18T15:30:59;31.17;;;14.50;;
5149;SDS011;2593;52.466;13.436;2022-12-18T15:36:18;30.00;;;13.77;;
5149;SDS011;2593;52.466;13.436;2022-12-18T15:38:47;35.80;;;14.53;;
5149;SDS011;2593;52.466;13.436;2022-12-18T15:41:15;29.20;;;15.60;;
5149;SDS011;2593;52.466;13.436;2022-12-18T15:43:45;31.13;;;15.73;;
5149;SDS011;2593;52.466;13.436;2022-12-18T15:46:13;55.77;;;20.70;;
5149;SDS011;2593;52.466;13.436;2022-12-18T15:48:52;30.00;;;15.10;;
5149;SDS011;2593;52.466;13.436;2022-12-18T15:51:23;45.70;;;17.97;;
5149;SDS011;2593;52.466;13.436;2022-12-18T15:53:55;37.77;;;17.00;;
5149;SDS011;2593;52.466;13.436;2022-12-18T15:56:23;40.13;;;17.23;;
5149;SDS011;2593;52.466;13.436;2022-12-18T15:59:17;35.93;;;15.17;;
5149;SDS011;2593;52.466;13.436;2022-12-18T16:01:45;41.90;;;18.43;;
5149;SDS011;2593;52.466;13.436;2022-12-18T16:04:13;37.23;;;17.80;;
5149;SDS011;2593;52.466;13.436;2022-12-18T16:06:41;32.10;;;13.97;;
5149;SDS011;2593;52.466;13.436;2022-12-18T16:09:07;40.90;;;15.90;;
5149;SDS011;2593;52.466;13.436;2022-12-18T16:11:33;35.73;;;16.50;;
5149;SDS011;2593;52.466;13.436;2022-12-18T16:16:54;36.27;;;15.33;;
5149;SDS011;2593;52.466;13.436;2022-12-18T16:19:25;29.27;;;16.00;;
5149;SDS011;2593;52.466;13.436;2022-12-18T16:21:52;32.97;;;16.20;;
5149;SDS011;2593;52.466;13.436;2022-12-18T16:24:27;32.17;;;16.83;;
5149;SDS011;2593;52.466;13.436;2022-12-18T16:26:56;33.97;;;18.30;;
5149;SDS011;2593;52.466;13.436;2022-12-18T16:29:24;42.13;;;19.20;;
5149;SDS011;2593;52.466;13.436;2022-12-18T16:31:55;38.23;;;17.10;;
5149;SDS011;2593;52.466;13.436;2022-12-18T16:34:26;32.73;;;17.13;;
5149;SDS011;2593;52.466;13.436;2022-12-18T16:36:55;36.10;;;17.63;;
5149;SDS011;2593;52.466;13.436;2022-12-18T16:39:25;44.83;;;21.77;;
5149;SDS011;2593;52.466;13.436;2022-12-18T16:41:51;35.37;;;18.90;;
5149;SDS011;2593;52.466;13.436;2022-12-18T16:44:17;39.07;;;17.40;;